Time;durP1;ratioP1;P1;durP2;ratioP2;P2;SDS_P1;SDS_P2;PMS_P1;PMS_P2;Temp;Humidity;BMP_temperature;BMP_pressure;BME280_temperature;BME280_humidity;BME280_pressure;Samples;Min_cycle;Max_cycle;Signal;HPM_P1;HPM_P2
2023/12/04 00:01:51;;;;;;;16.15;10.10;;;;;;;2.05;85.42;99128.69;5018026;28;20090;-68
2023/12/04 00:04:16;;;;;;;17.35;10.68;;;;;;;1.99;86.42;99128.97;5023596;28;20049;-68
2023/12/04 00:06:42;;;;;;;15.07;10.18;;;;;;;1.92;86.18;99124.16;5028792;28;20035;-68
2023/12/04 00:09:07;;;;;;;15.13;9.00;;;;;;;1.87;87.29;99125.31;5021159;28;20037;-70
2023/12/04 00:11:33;;;;;;;14.68;9.38;;;;;;;1.98;86.57;99128.16;5012717;28;20033;-66
2023/12/04 00:13:59;;;;;;;14.02;8.85;;;;;;;1.98;86.23;99125.59;5032130;28;20029;-70
2023/12/04 00:16:27;;;;;;;14.77;8.02;;;;;;;1.98;85.74;99124.75;5029419;28;20021;-70
2023/12/04 00:18:54;;;;;;;12.80;8.05;;;;;;;1.87;85.71;99121.00;5030000;28;20091;-68
2023/12/04 00:21:20;;;;;;;12.95;8.02;;;;;;;1.95;84.37;99123.16;5007875;28;20146;-69
2023/12/04 00:23:45;;;;;;;13.77;8.30;;;;;;;1.96;84.70;99119.72;5013316;28;20586;-67
2023/12/04 00:26:12;;;;;;;12.32;8.13;;;;;;;1.83;84.99;99090.47;5036721;28;20028;-68
2023/12/04 00:28:37;;;;;;;13.20;7.85;;;;;;;2.01;85.41;99114.31;5015766;28;20036;-68
2023/12/04 00:31:02;;;;;;;13.88;8.07;;;;;;;2.00;85.50;99121.19;5043295;28;20037;-67
2023/12/04 00:33:30;;;;;;;11.90;7.38;;;;;;;1.96;86.39;99119.72;5030331;28;20032;-69
2023/12/04 00:35:57;;;;;;;12.13;7.88;;;;;;;1.91;86.03;99106.28;5015990;28;20044;-68
2023/12/04 00:38:22;;;;;;;14.82;8.18;;;;;;;1.80;86.06;99111.13;5026452;28;20128;-69
2023/12/04 00:40:52;;;;;;;10.75;7.07;;;;;;;1.77;86.81;99109.56;5018677;28;20554;-68
2023/12/04 00:43:18;;;;;;;12.70;8.15;;;;;;;1.78;88.32;99092.44;5009316;28;20033;-69
2023/12/04 00:45:43;;;;;;;12.95;8.30;;;;;;;1.82;87.86;99099.88;5018062;28;20040;-69
2023/12/04 00:48:08;;;;;;;13.10;8.15;;;;;;;1.82;86.30;99089.63;5021894;28;21289;-69
2023/12/04 00:50:34;;;;;;;11.98;7.72;;;;;;;1.84;86.99;99084.41;5011927;28;20025;-68
2023/12/04 00:52:59;;;;;;;12.45;7.90;;;;;;;1.84;87.29;99089.53;5017324;28;20037;-68
2023/12/04 00:55:25;;;;;;;13.00;8.05;;;;;;;1.87;87.52;99090.22;5025838;28;20033;-68
2023/12/04 00:57:50;;;;;;;11.63;7.50;;;;;;;1.57;86.67;99054.16;5029902;28;20037;-66
2023/12/04 01:00:18;;;;;;;11.45;7.30;;;;;;;1.84;87.25;99099.81;5042659;28;20028;-69
2023/12/04 01:02:44;;;;;;;11.75;7.53;;;;;;;1.78;87.48;99087.31;5028689;28;20071;-66
2023/12/04 01:05:09;;;;;;;10.70;6.82;;;;;;;1.82;88.31;99089.63;5029650;28;20064;-68
2023/12/04 01:07:35;;;;;;;11.93;7.00;;;;;;;1.94;88.84;99080.50;5042372;28;20025;-68
2023/12/04 01:10:00;;;;;;;13.10;7.25;;;;;;;1.95;89.75;99089.00;5016023;28;20106;-68
2023/12/04 01:12:28;;;;;;;12.85;7.65;;;;;;;2.00;88.45;99094.72;5015459;28;20028;-68
2023/12/04 01:14:53;;;;;;;13.18;7.63;;;;;;;2.10;88.43;99101.06;5036258;28;20056;-69
2023/12/04 01:17:23;;;;;;;12.25;6.93;;;;;;;1.65;87.08;99049.47;5008202;28;20708;-69
2023/12/04 01:19:49;;;;;;;13.05;7.30;;;;;;;1.78;87.76;99065.03;5044678;28;20032;-68
2023/12/04 01:22:14;;;;;;;12.07;7.22;;;;;;;1.84;87.05;99064.72;5026443;28;20029;-68
2023/12/04 01:24:42;;;;;;;10.73;6.85;;;;;;;1.98;87.35;99109.38;5029242;28;20131;-68
2023/12/04 01:27:11;;;;;;;11.43;6.75;;;;;;;2.02;88.01;99106.56;5032655;28;20045;-69
2023/12/04 01:29:38;;;;;;;13.52;6.97;;;;;;;1.78;88.50;99064.22;5029972;28;20043;-70
2023/12/04 01:32:04;;;;;;;10.05;6.53;;;;;;;2.05;89.12;99095.31;5047886;28;20183;-67
2023/12/04 01:34:32;;;;;;;11.27;7.05;;;;;;;2.16;89.45;99105.03;5030074;28;20030;-69
2023/12/04 01:36:57;;;;;;;10.30;6.13;;;;;;;1.96;89.67;99067.59;5034830;28;20597;-69
2023/12/04 01:39:23;;;;;;;10.45;5.68;;;;;;;2.15;90.66;99108.50;5018358;28;20104;-66
2023/12/04 01:41:51;;;;;;;9.63;6.00;;;;;;;2.27;90.77;99102.75;5016213;28;20127;-69
2023/12/04 01:44:17;;;;;;;10.27;6.25;;;;;;;2.33;90.69;99111.84;5031027;28;20152;-68
2023/12/04 01:46:43;;;;;;;9.85;5.85;;;;;;;2.43;90.23;99108.72;5016050;28;20164;-66
2023/12/04 01:49:11;;;;;;;9.63;5.90;;;;;;;2.48;89.82;99109.31;5032968;28;20654;-69
2023/12/04 01:51:38;;;;;;;9.77;5.55;;;;;;;2.50;89.71;99104.91;5046752;28;20033;-69
2023/12/04 01:54:07;;;;;;;9.88;5.65;;;;;;;2.57;89.71;99097.69;5035844;28;20057;-67
2023/12/04 01:56:34;;;;;;;8.95;5.50;;;;;;;2.55;89.82;99093.56;5012042;28;20036;-67
2023/12/04 01:58:59;;;;;;;8.95;5.75;;;;;;;2.56;89.25;99096.06;5042048;28;20040;-69
2023/12/04 02:01:28;;;;;;;8.63;4.55;;;;;;;2.31;87.05;99068.31;5026798;28;20087;-66
2023/12/04 02:03:54;;;;;;;7.40;4.70;;;;;;;2.61;88.08;99100.94;5048394;28;20509;-69
2023/12/04 02:06:22;;;;;;;8.18;5.10;;;;;;;2.62;88.07;99092.34;5028254;28;20685;-68
2023/12/04 02:08:50;;;;;;;8.40;4.72;;;;;;;2.68;86.44;99100.53;5037552;28;20029;-69
2023/12/04 02:11:15;;;;;;;7.78;4.07;;;;;;;2.62;84.28;99102.59;5012336;28;20032;-66
2023/12/04 02:13:41;;;;;;;8.02;4.03;;;;;;;2.61;81.94;99106.06;5015435;28;20036;-69
2023/12/04 02:16:11;;;;;;;6.90;4.03;;;;;;;2.31;82.13;99060.59;5016732;28;20483;-70
2023/12/04 02:18:40;;;;;;;6.32;3.85;;;;;;;2.75;81.79;99103.59;5023500;28;20114;-67
2023/12/04 02:21:06;;;;;;;7.33;4.00;;;;;;;2.72;80.79;99098.63;5038435;28;20025;-69
2023/12/04 02:23:32;;;;;;;7.03;3.85;;;;;;;2.64;80.79;99091.31;5032300;28;20279;-69
2023/12/04 02:26:00;;;;;;;7.07;3.97;;;;;;;2.73;80.81;99097.72;5031700;28;20025;-69
2023/12/04 02:28:30;;;;;;;7.53;3.95;;;;;;;2.81;79.93;99094.72;5029793;28;20476;-66
2023/12/04 02:30:58;;;;;;;6.35;3.53;;;;;;;2.96;79.76;99105.91;5029471;28;20029;-69
2023/12/04 02:33:26;;;;;;;6.72;3.33;;;;;;;2.94;77.99;99093.16;5021617;28;20060;-69
2023/12/04 02:35:52;;;;;;;7.35;3.80;;;;;;;3.01;78.65;99098.75;5034395;28;20021;-69
2023/12/04 02:38:20;;;;;;;6.18;3.55;;;;;;;2.87;79.08;99105.50;5018997;28;20060;-70
2023/12/04 02:40:45;;;;;;;6.38;3.53;;;;;;;2.82;78.58;99089.50;5029436;28;20041;-68
2023/12/04 02:43:11;;;;;;;7.80;3.45;;;;;;;2.77;78.26;99086.34;5027496;28;20163;-69
2023/12/04 02:45:36;;;;;;;7.93;3.47;;;;;;;2.81;78.25;99097.28;5035547;28;20589;-69
2023/12/04 02:48:02;;;;;;;6.57;3.90;;;;;;;2.82;78.09;99094.63;5016424;28;20112;-68
2023/12/04 02:50:29;;;;;;;8.50;3.60;;;;;;;2.92;78.09;99097.56;5032796;28;20033;-69
2023/12/04 02:52:55;;;;;;;6.85;3.35;;;;;;;2.91;78.38;99102.78;5032812;28;20419;-68
2023/12/04 02:55:20;;;;;;;7.93;4.00;;;;;;;2.62;78.41;99064.09;5033042;28;20029;-69
2023/12/04 02:57:46;;;;;;;6.28;3.55;;;;;;;2.55;78.03;99047.34;5026241;28;20044;-69
2023/12/04 03:00:14;;;;;;;6.93;3.30;;;;;;;2.92;76.20;99099.28;5033794;28;20047;-69
2023/12/04 03:02:39;;;;;;;8.13;3.47;;;;;;;2.89;76.55;99085.69;5027344;28;20029;-69
2023/12/04 03:05:05;;;;;;;6.13;3.20;;;;;;;2.90;76.16;99081.38;5032021;28;20032;-69
2023/12/04 03:07:30;;;;;;;7.10;3.15;;;;;;;2.82;76.94;99076.66;5025213;28;20117;-67
2023/12/04 03:09:58;;;;;;;6.57;3.17;;;;;;;2.79;77.08;99081.13;5024861;28;20029;-68
2023/12/04 03:12:23;;;;;;;7.97;3.60;;;;;;;2.83;76.76;99072.34;5033226;28;20033;-70
2023/12/04 03:14:49;;;;;;;6.68;3.53;;;;;;;2.79;76.66;99073.44;5027870;28;20037;-69
2023/12/04 03:17:14;;;;;;;6.60;3.20;;;;;;;2.89;76.77;99070.28;5034378;28;20094;-69
2023/12/04 03:19:40;;;;;;;6.22;3.00;;;;;;;2.88;76.32;99076.34;5028497;28;20028;-68
2023/12/04 03:22:05;;;;;;;7.18;2.90;;;;;;;2.86;75.89;99069.63;5023415;28;20037;-69
2023/12/04 03:24:36;;;;;;;5.88;2.70;;;;;;;2.84;75.41;99058.59;5019778;28;20029;-70
2023/12/04 03:27:02;;;;;;;6.10;3.00;;;;;;;2.89;75.19;99056.63;5033229;28;21360;-69
2023/12/04 03:29:29;;;;;;;6.90;3.10;;;;;;;2.88;75.51;99060.94;5033289;28;20025;-68
2023/12/04 03:31:55;;;;;;;6.43;3.20;;;;;;;2.99;74.84;99055.16;5030653;28;20093;-69
2023/12/04 03:34:20;;;;;;;6.03;2.67;;;;;;;2.74;75.35;99013.78;5029910;28;20029;-69
2023/12/04 03:36:45;;;;;;;5.93;2.97;;;;;;;2.71;75.12;99016.53;5027812;28;20079;-69
2023/12/04 03:39:13;;;;;;;5.60;2.78;;;;;;;3.00;74.85;99056.03;5034897;28;20028;-69
2023/12/04 03:41:43;;;;;;;6.43;2.95;;;;;;;3.11;74.50;99063.13;5006251;28;20031;-67
2023/12/04 03:44:09;;;;;;;7.05;3.08;;;;;;;2.99;73.43;99056.91;5033134;28;20032;-69
2023/12/04 03:46:35;;;;;;;6.28;2.80;;;;;;;3.03;73.60;99056.69;5034846;28;20031;-70
2023/12/04 03:49:03;;;;;;;5.97;2.70;;;;;;;2.88;73.50;99055.78;5042852;28;20721;-69
2023/12/04 03:51:31;;;;;;;6.00;2.63;;;;;;;2.74;72.99;99004.38;5033498;28;20501;-70
2023/12/04 03:53:56;;;;;;;5.60;2.50;;;;;;;3.01;72.50;99031.97;5031709;28;20069;-69
2023/12/04 03:56:24;;;;;;;6.15;2.90;;;;;;;3.08;72.33;99040.97;5031423;28;20927;-69
2023/12/04 03:58:52;;;;;;;5.57;2.53;;;;;;;3.16;72.06;99051.66;5031457;28;20052;-70
2023/12/04 04:01:20;;;;;;;5.45;2.50;;;;;;;2.98;71.84;99045.81;5030560;28;20029;-66
2023/12/04 04:03:45;;;;;;;6.55;2.70;;;;;;;2.64;72.04;98998.88;5032621;28;20389;-71
2023/12/04 04:06:11;;;;;;;6.47;2.53;;;;;;;2.89;71.56;99030.94;5028994;28;20097;-70
2023/12/04 04:08:36;;;;;;;5.55;2.58;;;;;;;2.66;71.45;98991.13;5049297;28;20025;-69
2023/12/04 04:11:04;;;;;;;5.75;2.47;;;;;;;2.72;70.96;98980.50;5030009;28;20590;-70
2023/12/04 04:13:32;;;;;;;5.50;2.63;;;;;;;2.99;71.14;99032.03;5032941;28;20045;-70
2023/12/04 04:16:00;;;;;;;5.28;2.10;;;;;;;2.95;72.05;99024.63;5017626;28;20029;-66
2023/12/04 04:18:33;;;;;;;5.93;2.30;;;;;;;2.94;71.91;99018.66;5030058;28;20040;-67
2023/12/04 04:20:58;;;;;;;5.47;2.03;;;;;;;2.99;71.93;99015.81;5028337;28;20146;-70
2023/12/04 04:23:23;;;;;;;4.90;2.22;;;;;;;3.04;71.89;99014.63;5027163;28;20464;-68
2023/12/04 04:25:49;;;;;;;4.60;2.15;;;;;;;2.87;70.45;98969.38;5028602;28;20120;-68
2023/12/04 04:28:17;;;;;;;5.40;2.58;;;;;;;3.12;71.31;99029.63;5039931;28;20056;-68
2023/12/04 04:30:42;;;;;;;5.68;2.53;;;;;;;3.05;70.76;99030.91;5030416;28;20033;-70
2023/12/04 04:33:11;;;;;;;5.53;2.38;;;;;;;3.06;70.94;99020.50;5028997;28;20033;-69
2023/12/04 04:35:36;;;;;;;7.05;2.40;;;;;;;3.08;70.69;99028.13;5039135;28;20033;-68
2023/12/04 04:38:04;;;;;;;5.82;2.33;;;;;;;3.00;70.85;99020.88;5016574;28;20035;-69
2023/12/04 04:40:29;;;;;;;5.25;2.40;;;;;;;3.13;71.29;99038.16;5029581;28;20063;-67
2023/12/04 04:42:54;;;;;;;5.38;2.40;;;;;;;2.97;71.47;99030.50;5032910;28;20506;-66
2023/12/04 04:45:22;;;;;;;5.38;2.55;;;;;;;3.05;71.18;99031.72;5022985;28;20108;-68
2023/12/04 04:47:50;;;;;;;4.70;2.47;;;;;;;3.10;71.27;99041.72;5023592;28;20082;-70
2023/12/04 04:50:17;;;;;;;5.65;2.33;;;;;;;2.94;70.90;99004.97;5012521;28;20108;-69
2023/12/04 04:52:43;;;;;;;6.18;2.45;;;;;;;3.16;71.19;99050.81;5025445;28;20021;-68
2023/12/04 04:55:11;;;;;;;4.80;2.38;;;;;;;3.18;71.71;99051.59;5015245;28;20035;-70
2023/12/04 04:57:36;;;;;;;5.97;2.67;;;;;;;3.17;70.77;99047.34;5033509;28;20120;-70
2023/12/04 05:00:02;;;;;;;5.50;2.70;;;;;;;3.09;70.66;99045.22;5032270;28;20025;-67
2023/12/04 05:02:31;;;;;;;5.65;2.53;;;;;;;3.10;70.92;99039.16;5017523;28;20456;-69
2023/12/04 05:04:56;;;;;;;5.03;2.43;;;;;;;3.21;70.95;99049.69;5015400;28;20029;-69
2023/12/04 05:07:24;;;;;;;5.25;2.53;;;;;;;3.17;70.93;99037.88;5037382;28;21185;-65
2023/12/04 05:09:54;;;;;;;5.68;2.45;;;;;;;3.12;70.94;99039.91;5032572;28;20045;-69
2023/12/04 05:12:22;;;;;;;6.40;2.72;;;;;;;3.18;70.83;99039.56;5031909;28;20021;-70
2023/12/04 05:14:48;;;;;;;6.93;2.50;;;;;;;3.25;69.95;99033.16;5032615;28;20036;-69
2023/12/04 05:17:14;;;;;;;5.40;2.10;;;;;;;3.33;70.23;99029.31;5034235;28;20029;-67
2023/12/04 05:19:39;;;;;;;5.22;2.20;;;;;;;3.34;69.79;99016.38;5033300;28;20033;-70
2023/12/04 05:22:07;;;;;;;6.10;2.70;;;;;;;3.39;68.72;99016.09;5032202;28;20044;-66
2023/12/04 05:24:32;;;;;;;5.53;2.10;;;;;;;3.41;68.95;99032.25;5033574;28;20122;-70
2023/12/04 05:26:58;;;;;;;6.20;2.20;;;;;;;3.49;69.39;99021.53;5033443;28;20128;-68
2023/12/04 05:29:23;;;;;;;6.32;2.42;;;;;;;3.38;68.98;99023.00;5048087;28;20493;-70
2023/12/04 05:31:49;;;;;;;5.30;2.10;;;;;;;3.30;70.08;99024.34;5030684;28;20033;-70
2023/12/04 05:34:14;;;;;;;6.82;2.60;;;;;;;3.25;69.70;99017.72;5033925;28;20037;-67
2023/12/04 05:36:42;;;;;;;4.63;2.00;;;;;;;3.30;68.54;99016.63;5017805;28;20037;-66
2023/12/04 05:39:09;;;;;;;4.78;2.10;;;;;;;3.30;69.82;99014.06;5030618;28;20032;-68
2023/12/04 05:41:35;;;;;;;5.82;2.05;;;;;;;2.96;68.61;98964.63;5020907;28;20461;-69
2023/12/04 05:44:01;;;;;;;7.10;2.58;;;;;;;3.25;68.63;99012.59;5030720;28;20035;-70
2023/12/04 05:46:28;;;;;;;7.53;2.50;;;;;;;3.20;69.57;99012.03;5046242;28;20151;-67
2023/12/04 05:48:54;;;;;;;5.75;2.55;;;;;;;3.29;69.87;99010.69;5028621;28;20056;-71
2023/12/04 05:51:22;;;;;;;4.68;2.20;;;;;;;3.25;69.26;99009.22;5017398;28;20118;-69
2023/12/04 05:53:49;;;;;;;5.38;2.25;;;;;;;3.28;68.37;98998.72;5045493;28;21266;-70
2023/12/04 05:56:15;;;;;;;4.78;1.90;;;;;;;3.02;68.78;98959.94;5028246;28;20039;-70
2023/12/04 05:58:40;;;;;;;4.97;2.28;;;;;;;3.33;67.96;99001.88;5022095;28;20435;-69
2023/12/04 06:01:06;;;;;;;5.15;2.22;;;;;;;3.27;68.09;99002.22;5029837;28;20040;-70
2023/12/04 06:03:32;;;;;;;5.32;2.55;;;;;;;3.30;68.34;99011.50;5034808;28;20044;-69
2023/12/04 06:06:02;;;;;;;5.65;2.20;;;;;;;3.19;68.90;99001.84;5030704;28;20032;-68
2023/12/04 06:08:28;;;;;;;5.60;2.50;;;;;;;3.33;68.48;98998.47;5005150;28;20126;-67
2023/12/04 06:10:53;;;;;;;5.50;2.40;;;;;;;3.18;69.41;99000.19;5034413;28;20470;-69
2023/12/04 06:13:19;;;;;;;5.80;2.50;;;;;;;2.96;69.19;98950.03;5028842;28;20516;-70
2023/12/04 06:15:44;;;;;;;5.05;2.38;;;;;;;3.24;69.58;98994.69;5030339;28;20037;-67
2023/12/04 06:18:17;;;;;;;5.85;2.17;;;;;;;3.27;69.78;98999.66;5037297;28;20071;-69
2023/12/04 06:20:43;;;;;;;5.60;2.40;;;;;;;3.39;69.59;99000.69;5021364;28;20214;-66
2023/12/04 06:23:12;;;;;;;4.90;2.20;;;;;;;3.36;69.39;98999.13;5025484;28;20051;-69
2023/12/04 06:25:38;;;;;;;5.77;2.37;;;;;;;3.40;69.15;98992.88;5044796;28;20028;-68
2023/12/04 06:28:06;;;;;;;5.57;2.50;;;;;;;3.43;69.52;98992.72;5032507;28;20033;-70
2023/12/04 06:30:32;;;;;;;5.40;2.35;;;;;;;3.46;69.46;98991.69;5027086;28;20045;-70
2023/12/04 06:33:00;;;;;;;5.45;2.00;;;;;;;3.30;69.11;98960.09;5034805;28;20048;-68
2023/12/04 06:35:26;;;;;;;4.50;2.10;;;;;;;3.56;68.94;99007.38;5023939;28;20021;-68
2023/12/04 06:37:55;;;;;;;7.75;2.10;;;;;;;3.53;68.55;98997.31;5030334;28;20028;-71
2023/12/04 06:40:22;;;;;;;5.70;2.45;;;;;;;3.50;68.39;99000.88;5017609;28;20045;-70
2023/12/04 06:42:48;;;;;;;4.60;2.05;;;;;;;3.34;69.21;99010.38;5033531;28;20028;-65
2023/12/04 06:45:14;;;;;;;5.35;2.10;;;;;;;3.24;68.45;98977.50;5029301;28;20383;-69
2023/12/04 06:47:43;;;;;;;5.90;2.40;;;;;;;3.37;68.44;99013.63;5032780;28;20041;-68
2023/12/04 06:50:09;;;;;;;5.60;2.40;;;;;;;3.23;67.60;99005.88;5028129;28;20433;-70
2023/12/04 06:52:34;;;;;;;4.85;1.88;;;;;;;3.44;68.13;99008.94;5030380;28;20029;-68
2023/12/04 06:55:00;;;;;;;4.57;1.98;;;;;;;3.34;67.78;98995.81;5038921;28;20503;-69
2023/12/04 06:57:25;;;;;;;5.03;1.92;;;;;;;3.26;67.07;98996.25;5033986;28;20028;-67
2023/12/04 06:59:51;;;;;;;4.95;2.10;;;;;;;3.18;66.85;98975.31;5030975;28;20037;-70
2023/12/04 07:02:18;;;;;;;5.20;2.10;;;;;;;3.41;66.06;99011.69;5042817;28;20111;-70
2023/12/04 07:04:49;;;;;;;4.97;1.98;;;;;;;3.41;66.56;99006.53;5037152;28;20029;-67
2023/12/04 07:07:14;;;;;;;4.70;2.13;;;;;;;3.40;66.02;98995.44;5013582;28;20043;-67
2023/12/04 07:09:42;;;;;;;4.15;1.83;;;;;;;3.55;65.76;99005.75;5031824;28;20033;-70
2023/12/04 07:12:07;;;;;;;5.10;2.00;;;;;;;3.59;64.83;99005.47;5020915;28;20029;-68
2023/12/04 07:14:33;;;;;;;6.82;2.22;;;;;;;3.60;65.39;98996.84;5019633;28;20031;-70
2023/12/04 07:17:00;;;;;;;4.63;1.90;;;;;;;3.65;65.51;98994.84;5026281;28;20029;-70
2023/12/04 07:19:26;;;;;;;4.47;1.98;;;;;;;3.61;65.05;99001.09;5017788;28;20039;-69
2023/12/04 07:21:52;;;;;;;7.13;2.30;;;;;;;3.70;64.85;98993.72;5014137;28;20040;-68
2023/12/04 07:24:20;;;;;;;5.32;2.05;;;;;;;3.68;65.51;98996.38;5018661;28;20041;-71
2023/12/04 07:26:47;;;;;;;6.55;2.03;;;;;;;3.42;65.59;98949.09;5022564;28;20124;-70
2023/12/04 07:29:16;;;;;;;5.10;2.05;;;;;;;3.35;64.57;98963.22;5030647;28;20561;-69
2023/12/04 07:31:46;;;;;;;4.93;1.95;;;;;;;3.79;64.58;98993.16;5008583;28;20108;-70
2023/12/04 07:34:14;;;;;;;4.53;2.00;;;;;;;3.90;63.93;98992.53;5027887;28;20061;-68
2023/12/04 07:36:43;;;;;;;6.18;2.22;;;;;;;3.85;63.99;98974.78;5036903;28;20028;-70
2023/12/04 07:39:09;;;;;;;5.25;2.05;;;;;;;3.69;63.36;98941.47;5012287;28;20041;-72
2023/12/04 07:41:39;;;;;;;6.10;2.10;;;;;;;4.03;63.46;98985.69;5031359;28;20022;-71
2023/12/04 07:44:06;;;;;;;5.75;1.80;;;;;;;4.03;64.23;98989.13;5029409;28;20029;-70
2023/12/04 07:46:32;;;;;;;6.10;2.00;;;;;;;4.09;63.90;98987.91;5035711;28;20033;-69
2023/12/04 07:48:57;;;;;;;5.85;2.45;;;;;;;4.08;66.54;98982.84;5037673;28;20043;-69
2023/12/04 07:51:28;;;;;;;5.95;2.22;;;;;;;4.13;66.62;98997.09;5009365;28;20124;-71
2023/12/04 07:53:53;;;;;;;4.80;2.20;;;;;;;4.15;66.48;98982.38;5032747;28;20057;-68
2023/12/04 07:56:21;;;;;;;5.32;2.15;;;;;;;4.17;67.13;98990.81;5032613;28;20048;-67
2023/12/04 07:58:46;;;;;;;5.75;2.15;;;;;;;4.24;68.20;98999.00;5025341;28;20041;-69
2023/12/04 08:01:14;;;;;;;4.90;2.17;;;;;;;4.25;69.06;98995.50;5033729;28;20025;-70
2023/12/04 08:03:42;;;;;;;5.10;2.17;;;;;;;4.26;68.77;99006.63;5021436;28;20132;-71
2023/12/04 08:06:08;;;;;;;7.57;3.08;;;;;;;4.31;69.00;99007.16;5032589;28;20121;-70
2023/12/04 08:08:36;;;;;;;7.75;3.83;;;;;;;4.29;68.66;99007.28;5032572;28;20029;-70
2023/12/04 08:11:01;;;;;;;7.05;3.92;;;;;;;4.28;68.71;99012.50;5027340;28;20025;-70
2023/12/04 08:13:27;;;;;;;6.13;3.38;;;;;;;3.95;68.51;98963.03;5025587;28;20540;-69
2023/12/04 08:15:52;;;;;;;8.05;4.28;;;;;;;4.32;68.30;99007.06;5023392;28;20028;-72
2023/12/04 08:18:20;;;;;;;8.32;4.03;;;;;;;4.39;69.61;99002.38;5030229;28;20029;-70
2023/12/04 08:20:45;;;;;;;6.32;3.55;;;;;;;4.42;68.92;99008.16;5028054;28;20067;-70
2023/12/04 08:23:10;;;;;;;6.63;3.58;;;;;;;4.31;69.60;99008.00;5017996;28;20112;-70
2023/12/04 08:25:38;;;;;;;5.85;3.00;;;;;;;4.07;68.32;98958.88;5031187;28;20025;-71
2023/12/04 08:28:06;;;;;;;5.53;3.10;;;;;;;4.35;68.96;98994.00;5031852;28;20040;-70
2023/12/04 08:30:31;;;;;;;6.93;3.30;;;;;;;4.46;69.61;98979.66;5031572;28;20037;-69
2023/12/04 08:33:01;;;;;;;5.82;3.15;;;;;;;4.53;68.92;98986.88;5032354;28;20106;-70
2023/12/04 08:35:29;;;;;;;5.70;2.90;;;;;;;4.28;69.14;98946.41;5029188;28;20040;-70
2023/12/04 08:37:57;;;;;;;8.23;2.83;;;;;;;4.39;67.66;98974.06;5028086;28;20052;-70
2023/12/04 08:40:22;;;;;;;6.07;3.05;;;;;;;4.04;64.24;98969.34;5017749;28;20025;-71
2023/12/04 08:42:48;;;;;;;5.70;2.63;;;;;;;3.92;64.25;98973.50;5024266;28;20033;-68
2023/12/04 08:45:13;;;;;;;4.65;2.05;;;;;;;4.04;63.49;98982.22;5051729;28;20759;-67
2023/12/04 08:47:41;;;;;;;5.22;2.25;;;;;;;3.94;63.80;98986.25;5022471;28;20093;-70
2023/12/04 08:50:11;;;;;;;4.38;1.85;;;;;;;3.90;63.88;98995.09;5014846;28;21162;-67
2023/12/04 08:52:41;;;;;;;6.07;2.42;;;;;;;3.84;64.14;98986.00;5029728;28;20086;-68
2023/12/04 08:55:07;;;;;;;;;;;;;;;3.86;64.35;98981.59;5024879;28;20052;-69
2023/12/04 08:57:32;;;;;;;4.57;1.98;;;;;;;3.82;63.82;98973.22;5032020;28;21467;-72
2023/12/04 08:59:58;;;;;;;5.50;2.08;;;;;;;3.90;63.50;98974.50;5009332;28;20026;-72
2023/12/04 09:02:23;;;;;;;4.63;2.08;;;;;;;3.87;62.93;98974.69;5028751;28;20714;-72
2023/12/04 09:04:49;;;;;;;4.95;2.20;;;;;;;3.91;62.53;98974.44;5009001;28;20067;-70
2023/12/04 09:07:14;;;;;;;6.28;2.40;;;;;;;4.02;63.74;98984.06;5016085;28;20030;-70
2023/12/04 09:09:40;;;;;;;5.85;2.20;;;;;;;4.04;63.27;98972.75;5023084;28;20041;-70
2023/12/04 09:12:08;;;;;;;5.93;2.35;;;;;;;3.96;64.37;98966.41;5032228;28;20025;-68
2023/12/04 09:14:34;;;;;;;5.75;2.42;;;;;;;3.90;64.79;98959.06;5038226;28;20029;-70
2023/12/04 09:17:00;;;;;;;4.88;2.17;;;;;;;4.02;64.51;98968.63;5029085;28;20055;-68
2023/12/04 09:19:25;;;;;;;5.18;2.50;;;;;;;4.02;64.65;98966.88;5012873;28;20630;-69
2023/12/04 09:21:56;;;;;;;5.15;2.15;;;;;;;3.97;63.90;98968.06;5032686;28;20017;-71
2023/12/04 09:24:24;;;;;;;5.88;2.90;;;;;;;3.77;63.57;98943.56;5032715;28;20095;-71
2023/12/04 09:26:50;;;;;;;7.28;3.50;;;;;;;3.74;64.26;98926.59;5016464;28;20480;-71
2023/12/04 09:29:16;;;;;;;6.07;2.88;;;;;;;3.98;64.04;98982.56;5023840;28;20041;-67
2023/12/04 09:31:44;;;;;;;6.18;2.83;;;;;;;4.03;64.84;98976.25;5027457;28;20025;-72
2023/12/04 09:34:09;;;;;;;5.15;2.53;;;;;;;4.07;64.30;98976.03;5011115;28;20030;-67
2023/12/04 09:36:34;;;;;;;6.00;2.78;;;;;;;4.14;64.35;98975.56;5045198;28;20070;-71
2023/12/04 09:39:00;;;;;;;5.53;2.28;;;;;;;4.30;62.72;98972.88;5014594;28;20057;-70
2023/12/04 09:41:28;;;;;;;6.07;2.70;;;;;;;4.23;63.11;98977.59;5010642;28;20212;-71
2023/12/04 09:43:58;;;;;;;5.55;2.55;;;;;;;3.97;63.22;98943.16;5034010;28;20068;-68
2023/12/04 09:46:23;;;;;;;5.28;2.28;;;;;;;3.95;62.57;98931.31;5010341;28;20040;-69
2023/12/04 09:48:53;;;;;;;4.90;2.42;;;;;;;4.27;62.58;98969.66;5033257;28;20685;-70
2023/12/04 09:51:21;;;;;;;7.75;2.65;;;;;;;4.43;63.76;98973.78;5027799;28;20037;-70
2023/12/04 09:53:50;;;;;;;5.97;2.13;;;;;;;4.48;61.04;98976.03;5028655;28;20048;-69
2023/12/04 09:56:16;;;;;;;6.38;2.40;;;;;;;4.41;61.99;98980.75;5036827;28;20136;-68
2023/12/04 09:58:41;;;;;;;4.88;2.38;;;;;;;4.54;60.63;98985.94;5025387;28;20497;-70
2023/12/04 10:01:07;;;;;;;5.00;2.42;;;;;;;4.58;60.13;98973.69;5031643;28;20042;-69
2023/12/04 10:03:34;;;;;;;5.50;2.38;;;;;;;4.42;61.01;98933.47;5009677;28;20041;-69
2023/12/04 10:06:00;;;;;;;4.55;2.25;;;;;;;4.75;61.85;98964.91;5029668;28;20028;-66
2023/12/04 10:08:25;;;;;;;5.75;2.55;;;;;;;4.75;61.46;98949.44;5030132;28;20032;-70
2023/12/04 10:10:50;;;;;;;5.60;2.63;;;;;;;4.76;63.11;98964.81;5020043;28;20037;-68
2023/12/04 10:13:16;;;;;;;5.80;2.35;;;;;;;4.75;63.10;98967.50;5025112;28;20056;-70
2023/12/04 10:15:51;;;;;;;5.45;2.35;;;;;;;4.74;64.17;98968.41;5033318;28;20038;-69
2023/12/04 10:18:30;;;;;;;6.55;3.63;;;;;;;4.73;63.85;98959.84;5037745;28;20028;-69
2023/12/04 10:20:56;;;;;;;5.20;2.63;;;;;;;4.82;63.83;98958.44;5031565;28;20025;-69
2023/12/04 10:23:22;;;;;;;5.88;2.80;;;;;;;4.85;63.62;98965.13;5037433;28;20144;-71
2023/12/04 10:25:50;;;;;;;6.35;2.97;;;;;;;4.88;64.11;98952.06;5010753;28;20025;-70
2023/12/04 10:28:19;;;;;;;6.13;3.17;;;;;;;4.88;64.37;98949.47;5030415;28;20495;-69
2023/12/04 10:30:45;;;;;;;4.80;2.70;;;;;;;4.71;65.48;98909.34;5014100;28;20040;-69
2023/12/04 10:33:12;;;;;;;6.53;3.15;;;;;;;4.81;65.09;98934.41;5013462;28;20118;-70
2023/12/04 10:35:38;;;;;;;6.05;2.80;;;;;;;4.58;64.45;98891.28;5021474;28;20437;-70
2023/12/04 10:38:04;;;;;;;5.80;3.03;;;;;;;4.79;64.14;98920.78;5010796;28;20037;-71
2023/12/04 10:40:33;;;;;;;6.63;2.80;;;;;;;4.81;64.30;98928.44;5020158;28;20029;-70
2023/12/04 10:43:20;;;;;;;6.03;2.47;;;;;;;4.87;63.78;98922.03;5033787;28;20488;-68
2023/12/04 10:45:49;;;;;;;6.40;2.72;;;;;;;4.74;64.40;98899.66;5041949;28;20091;-71
2023/12/04 10:48:16;;;;;;;7.03;3.60;;;;;;;4.81;64.16;98921.53;5032008;28;20033;-66
2023/12/04 10:50:43;;;;;;;5.78;3.08;;;;;;;4.76;64.77;98915.03;5029384;28;20029;-70
2023/12/04 10:53:12;;;;;;;6.88;3.00;;;;;;;4.90;64.61;98911.53;5020913;28;20060;-69
2023/12/04 10:55:39;;;;;;;6.22;3.30;;;;;;;4.93;64.85;98906.19;5019202;28;20134;-69
2023/12/04 10:58:09;;;;;;;7.57;3.80;;;;;;;4.91;64.75;98895.16;5021528;28;20059;-71
2023/12/04 11:00:38;;;;;;;7.03;3.75;;;;;;;4.78;65.00;98839.28;5025287;28;20037;-69
2023/12/04 11:03:08;;;;;;;8.52;3.65;;;;;;;5.07;65.35;98879.50;5017401;28;20033;-70
2023/12/04 11:05:33;;;;;;;;;;;;;;;5.22;65.32;98883.63;5031353;28;20036;-69
2023/12/04 11:08:02;;;;;;;7.60;3.63;;;;;;;4.89;64.73;98822.28;5049317;28;19952;-71
2023/12/04 11:10:29;;;;;;;10.10;4.63;;;;;;;4.89;64.35;98819.69;5023233;28;20029;-71
2023/12/04 11:13:03;;;;;;;8.43;4.53;;;;;;;4.99;64.77;98813.81;5029241;28;20039;-69
2023/12/04 11:15:30;;;;;;;8.23;4.60;;;;;;;5.18;64.10;98841.75;5044866;28;20026;-66
2023/12/04 11:17:59;;;;;;;7.47;4.50;;;;;;;5.19;63.07;98847.72;5011389;28;20064;-70
2023/12/04 11:20:28;;;;;;;7.85;4.40;;;;;;;5.29;63.61;98835.03;5045466;28;20059;-70
2023/12/04 11:22:59;;;;;;;9.75;4.45;;;;;;;5.32;63.62;98821.94;5021214;28;20097;-69
2023/12/04 11:25:28;;;;;;;7.70;4.65;;;;;;;5.35;63.83;98822.53;5030416;28;20033;-69
2023/12/04 11:27:54;;;;;;;7.47;4.20;;;;;;;5.32;63.01;98812.44;5039691;28;20045;-68
2023/12/04 11:30:22;;;;;;;9.07;4.90;;;;;;;5.32;63.56;98806.47;5031229;28;20489;-71
2023/12/04 11:32:51;;;;;;;10.32;6.13;;;;;;;5.31;63.98;98815.97;5020603;28;20111;-70
2023/12/04 11:35:18;;;;;;;8.80;4.93;;;;;;;5.37;63.40;98814.72;5043529;28;20022;-67
2023/12/04 11:37:49;;;;;;;9.43;4.40;;;;;;;5.30;63.34;98816.88;5032662;28;20029;-69
2023/12/04 11:40:15;;;;;;;7.30;4.32;;;;;;;5.32;62.84;98811.63;5034214;28;20035;-71